Time;durP1;ratioP1;P1;durP2;ratioP2;P2;SDS_P1;SDS_P2;PMS_P1;PMS_P2;Temp;Humidity;BMP_temperature;BMP_pressure;BME280_temperature;BME280_humidity;BME280_pressure;Samples;Min_cycle;Max_cycle;Signal;HPM_P1;HPM_P2
2023/09/03 00:00:28;;;;;;;12.25;5.07;;;24.90;66.50;;;;;;5119705;28;20031;-78
2023/09/03 00:02:55;;;;;;;13.30;5.95;;;24.90;66.60;;;;;;5119819;28;20110;-77
2023/09/03 00:05:20;;;;;;;9.55;5.07;;;24.90;66.40;;;;;;5121774;22;20048;-77
2023/09/03 00:07:46;;;;;;;12.43;5.38;;;24.80;66.60;;;;;;5099556;28;20497;-78
2023/09/03 00:10:12;;;;;;;11.88;5.57;;;24.80;66.60;;;;;;5081311;28;20043;-78
2023/09/03 00:12:38;;;;;;;10.73;5.30;;;24.80;66.80;;;;;;5081257;28;20043;-77
2023/09/03 00:15:04;;;;;;;11.55;5.38;;;24.90;66.70;;;;;;5081596;28;20032;-80
2023/09/03 00:17:30;;;;;;;9.82;5.32;;;24.80;66.60;;;;;;5081465;28;20044;-80
2023/09/03 00:19:56;;;;;;;13.07;5.15;;;24.80;67.00;;;;;;5081452;28;20028;-78
2023/09/03 00:22:22;;;;;;;11.25;5.70;;;24.80;66.90;;;;;;5099580;28;20106;-79
2023/09/03 00:24:49;;;;;;;10.40;5.70;;;24.80;66.90;;;;;;5081498;28;20032;-80
2023/09/03 00:27:15;;;;;;;12.00;5.88;;;24.80;67.10;;;;;;5081287;28;20131;-79
2023/09/03 00:29:41;;;;;;;12.55;5.88;;;24.80;67.30;;;;;;5081404;28;20414;-80
2023/09/03 00:32:07;;;;;;;10.88;5.70;;;24.80;67.20;;;;;;5081273;28;20066;-82
2023/09/03 00:34:32;;;;;;;11.40;6.00;;;24.70;67.10;;;;;;5081368;28;20029;-79
2023/09/03 00:36:59;;;;;;;14.55;6.18;;;24.70;67.20;;;;;;5099311;28;20084;-80
2023/09/03 00:39:24;;;;;;;13.48;6.45;;;24.70;67.30;;;;;;5099658;28;20032;-79
2023/09/03 00:41:50;;;;;;;10.95;5.50;;;24.70;67.60;;;;;;5099515;28;20043;-80
2023/09/03 00:44:16;;;;;;;10.88;5.60;;;24.70;67.60;;;;;;5081147;28;20024;-79
2023/09/03 00:46:43;;;;;;;13.98;5.95;;;24.70;67.70;;;;;;5099398;28;20032;-78
2023/09/03 00:49:19;;;;;;;10.75;5.85;;;24.70;67.90;;;;;;5099552;28;20024;-81
2023/09/03 00:51:45;;;;;;;11.13;5.60;;;24.60;67.40;;;;;;5080989;28;20036;-77
2023/09/03 00:54:12;;;;;;;11.55;5.55;;;24.60;68.00;;;;;;5099201;28;20067;-79
2023/09/03 00:56:38;;;;;;;11.27;5.60;;;24.50;68.00;;;;;;5099113;28;20036;-78
2023/09/03 00:59:06;;;;;;;10.30;5.05;;;24.50;68.00;;;;;;5099306;28;20125;-79
2023/09/03 01:01:32;;;;;;;13.25;5.75;;;24.50;68.10;;;;;;5099217;28;20107;-80
2023/09/03 01:03:58;;;;;;;11.38;5.50;;;24.50;68.10;;;;;;5099651;28;20036;-78
2023/09/03 01:06:26;;;;;;;11.63;5.13;;;24.50;68.40;;;;;;5080940;28;20509;-79
2023/09/03 01:08:52;;;;;;;14.40;5.93;;;24.50;68.40;;;;;;5098827;28;20036;-79
2023/09/03 01:11:32;;;;;;;11.70;5.13;;;24.40;68.50;;;;;;5096219;28;20035;-79
2023/09/03 01:14:44;;;;;;;11.52;5.20;;;24.50;68.30;;;;;;5108381;28;20036;-79
2023/09/03 01:17:21;;;;;;;11.30;5.22;;;24.50;68.30;;;;;;5115672;28;20538;-78
2023/09/03 01:20:05;;;;;;;9.05;5.32;;;24.50;68.60;;;;;;5118154;28;20031;-78
2023/09/03 01:23:12;;;;;;;11.77;6.10;;;24.50;68.50;;;;;;5103288;28;20038;-77
2023/09/03 01:26:22;;;;;;;10.93;5.07;;;24.50;68.40;;;;;;5084784;28;20051;-77
2023/09/03 01:28:49;;;;;;;11.63;5.25;;;24.50;68.50;;;;;;5097298;28;20035;-78
2023/09/03 01:31:17;;;;;;;10.88;5.22;;;24.40;68.70;;;;;;5115460;28;20023;-77
2023/09/03 01:33:45;;;;;;;9.90;5.25;;;24.40;68.90;;;;;;5097276;28;20499;-77
2023/09/03 01:36:13;;;;;;;10.02;5.15;;;24.40;69.30;;;;;;5115853;28;20474;-78
2023/09/03 01:38:39;;;;;;;12.50;4.82;;;24.30;69.20;;;;;;5115941;28;20082;-77
2023/09/03 01:41:07;;;;;;;9.73;5.35;;;24.30;69.60;;;;;;5097189;28;20368;-77
2023/09/03 01:43:34;;;;;;;10.60;5.00;;;24.30;69.50;;;;;;5115553;28;20036;-77
2023/09/03 01:46:22;;;;;;;10.70;5.25;;;24.30;69.40;;;;;;5115318;28;20059;-77
2023/09/03 01:49:07;;;;;;;13.35;4.90;;;24.30;69.30;;;;;;5115630;28;20031;-77
2023/09/03 01:51:48;;;;;;;8.90;4.70;;;24.20;69.30;;;;;;5115330;28;20035;-78
2023/09/03 01:54:28;;;;;;;9.60;4.90;;;24.20;69.60;;;;;;5096929;28;20058;-78
2023/09/03 01:57:22;;;;;;;10.38;5.03;;;24.20;69.40;;;;;;5119465;28;20039;-77
2023/09/03 01:59:57;;;;;;;13.30;5.20;;;24.20;69.50;;;;;;5114949;28;20035;-78
2023/09/03 02:02:25;;;;;;;10.65;4.60;;;24.20;69.70;;;;;;5116012;28;20216;-77
2023/09/03 02:04:54;;;;;;;10.48;4.97;;;24.10;70.00;;;;;;5115055;28;20047;-77
2023/09/03 02:07:20;;;;;;;10.65;4.60;;;24.00;69.90;;;;;;5115084;28;20020;-77
2023/09/03 02:09:46;;;;;;;11.50;4.93;;;24.00;70.30;;;;;;5114868;28;20028;-77
2023/09/03 02:12:12;;;;;;;16.30;4.90;;;23.90;70.50;;;;;;5096531;28;20114;-77
2023/09/03 02:14:38;;;;;;;10.93;4.82;;;23.90;71.10;;;;;;5096414;28;20089;-77
2023/09/03 02:17:04;;;;;;;8.48;5.00;;;23.90;70.60;;;;;;5114231;28;20044;-77
2023/09/03 02:19:30;;;;;;;10.48;4.93;;;23.90;70.70;;;;;;5114542;28;20137;-76
2023/09/03 02:21:56;;;;;;;10.82;5.03;;;23.90;70.50;;;;;;5095403;28;20030;-76
2023/09/03 02:24:22;;;;;;;11.00;4.97;;;24.00;70.60;;;;;;5114122;28;20081;-76
2023/09/03 02:26:48;;;;;;;8.85;4.55;;;24.00;70.50;;;;;;5095878;28;20343;-76
2023/09/03 02:29:14;;;;;;;11.38;4.80;;;24.10;70.60;;;;;;5114055;28;20040;-77
2023/09/03 02:31:40;;;;;;;12.15;4.88;;;24.10;70.60;;;;;;5114179;28;20420;-78
2023/09/03 02:34:09;;;;;;;11.82;4.63;;;24.00;70.40;;;;;;5114292;28;20036;-78
2023/09/03 02:36:35;;;;;;;9.07;4.82;;;24.00;70.70;;;;;;5114029;28;20043;-79
2023/09/03 02:39:10;;;;;;;11.30;4.85;;;24.10;71.00;;;;;;5114326;28;20486;-78
2023/09/03 02:41:36;;;;;;;11.77;5.85;;;24.10;70.60;;;;;;5113911;28;20027;-78
2023/09/03 02:44:03;;;;;;;10.80;5.05;;;24.00;70.80;;;;;;5114135;28;20574;-77
2023/09/03 02:46:29;;;;;;;14.27;4.50;;;24.10;70.80;;;;;;5114155;28;20169;-77
2023/09/03 02:48:55;;;;;;;11.20;5.05;;;24.10;70.90;;;;;;5113765;28;20547;-77
2023/09/03 02:51:21;;;;;;;8.63;4.68;;;24.10;71.00;;;;;;5113831;28;20046;-78
2023/09/03 02:53:47;;;;;;;13.13;4.68;;;24.00;70.90;;;;;;5114070;28;20491;-78
2023/09/03 02:56:14;;;;;;;8.68;4.88;;;24.00;70.90;;;;;;5095699;28;20028;-77
2023/09/03 02:58:41;;;;;;;13.38;5.20;;;24.00;70.90;;;;;;5113817;28;20556;-78
2023/09/03 03:01:09;;;;;;;9.07;4.40;;;23.90;71.10;;;;;;5114083;28;20077;-77
2023/09/03 03:03:38;;;;;;;10.65;5.03;;;23.80;71.30;;;;;;5095291;28;20046;-77
2023/09/03 03:06:04;;;;;;;8.63;4.57;;;23.80;71.70;;;;;;5095294;28;20075;-77
2023/09/03 03:08:30;;;;;;;9.73;4.68;;;23.70;71.60;;;;;;5113694;28;20063;-78
2023/09/03 03:11:06;;;;;;;9.88;4.30;;;23.70;71.80;;;;;;5113617;28;20403;-78
2023/09/03 03:13:32;;;;;;;8.43;4.38;;;23.70;71.70;;;;;;5095221;28;20491;-77
2023/09/03 03:16:05;;;;;;;8.90;4.38;;;23.70;71.90;;;;;;5113310;28;20031;-78
2023/09/03 03:18:35;;;;;;;10.27;4.50;;;23.70;72.10;;;;;;5095016;28;20085;-77
2023/09/03 03:21:06;;;;;;;11.65;4.72;;;23.70;72.00;;;;;;5094991;28;20035;-77
2023/09/03 03:23:34;;;;;;;10.40;4.47;;;23.70;72.00;;;;;;5095004;28;20028;-79
2023/09/03 03:26:00;;;;;;;10.35;4.03;;;23.70;71.90;;;;;;5095166;28;20420;-76
2023/09/03 03:28:26;;;;;;;10.95;4.63;;;23.70;71.90;;;;;;5113231;28;20050;-78
2023/09/03 03:30:51;;;;;;;13.77;4.30;;;23.80;71.90;;;;;;5112972;28;20031;-77
2023/09/03 03:33:23;;;;;;;10.82;4.00;;;23.80;72.20;;;;;;5112574;28;20109;-78
2023/09/03 03:35:49;;;;;;;12.00;4.82;;;23.80;72.20;;;;;;5113178;28;20026;-78
2023/09/03 03:38:14;;;;;;;11.32;4.18;;;23.70;72.00;;;;;;5113058;28;20118;-77
2023/09/03 03:40:40;;;;;;;11.38;4.47;;;23.70;72.10;;;;;;5094833;28;20028;-77
2023/09/03 03:43:06;;;;;;;11.10;4.55;;;23.70;72.50;;;;;;5113095;28;20115;-73
2023/09/03 03:45:36;;;;;;;11.02;4.43;;;23.60;72.40;;;;;;5113014;28;20080;-78
2023/09/03 03:48:05;;;;;;;9.63;4.53;;;23.60;72.40;;;;;;5094841;28;20040;-77
2023/09/03 03:50:34;;;;;;;10.82;4.25;;;23.60;72.50;;;;;;5112907;28;20111;-77
2023/09/03 03:53:00;;;;;;;9.63;4.00;;;23.60;72.80;;;;;;5094616;28;20039;-78
2023/09/03 03:55:34;;;;;;;7.80;3.80;;;23.60;72.70;;;;;;5094425;28;20035;-77
2023/09/03 03:58:03;;;;;;;12.50;4.30;;;23.50;72.90;;;;;;5112308;28;20122;-76
2023/09/03 04:00:29;;;;;;;10.05;4.78;;;23.60;72.80;;;;;;5112926;28;20027;-76
2023/09/03 04:02:59;;;;;;;11.40;4.68;;;23.50;72.80;;;;;;5113023;28;20376;-76
2023/09/03 04:05:25;;;;;;;8.15;3.70;;;23.50;73.00;;;;;;5094355;28;20052;-77
2023/09/03 04:07:52;;;;;;;10.45;4.63;;;23.40;73.20;;;;;;5113034;28;20375;-76
2023/09/03 04:10:18;;;;;;;9.18;4.20;;;23.40;73.60;;;;;;5112843;28;20042;-76
2023/09/03 04:12:44;;;;;;;13.30;4.85;;;23.40;73.70;;;;;;5094947;28;20042;-77
2023/09/03 04:15:13;;;;;;;12.60;4.97;;;23.30;73.50;;;;;;5112858;28;20023;-76
2023/09/03 04:17:39;;;;;;;10.05;5.13;;;23.30;73.80;;;;;;5094454;28;20086;-76
2023/09/03 04:20:05;;;;;;;9.98;4.50;;;23.30;73.90;;;;;;5112696;28;20039;-77
2023/09/03 04:22:37;;;;;;;7.60;4.63;;;23.30;73.90;;;;;;5112658;28;20032;-77
2023/09/03 04:25:07;;;;;;;11.18;4.53;;;23.30;74.20;;;;;;5094852;28;20498;-77
2023/09/03 04:27:38;;;;;;;13.55;4.70;;;23.30;74.00;;;;;;5112532;28;20541;-77
2023/09/03 04:30:05;;;;;;;10.68;4.40;;;23.20;73.90;;;;;;5093560;28;20034;-77
2023/09/03 04:32:39;;;;;;;8.27;4.55;;;23.30;74.10;;;;;;5112449;28;20513;-78
2023/09/03 04:35:06;;;;;;;11.02;4.68;;;23.20;74.20;;;;;;5093991;28;20031;-77
2023/09/03 04:37:32;;;;;;;10.10;5.00;;;23.20;74.30;;;;;;5112347;28;20042;-76
2023/09/03 04:40:19;;;;;;;7.15;3.83;;;23.20;74.30;;;;;;5112160;28;20046;-78
2023/09/03 04:42:45;;;;;;;11.00;5.40;;;23.20;74.60;;;;;;5085361;28;20031;-77
2023/09/03 04:45:53;;;;;;;9.73;4.78;;;23.20;74.40;;;;;;5112669;28;20028;-76
2023/09/03 04:48:07;;;;;;;9.38;4.53;;;23.30;74.20;;;;;;5107901;28;20031;-77
2023/09/03 04:50:32;;;;;;;13.15;5.20;;;23.40;73.90;;;;;;5116251;28;20032;-76
2023/09/03 04:53:04;;;;;;;9.98;4.95;;;23.40;73.80;;;;;;5097793;28;20085;-77
2023/09/03 04:55:34;;;;;;;10.75;4.82;;;23.40;73.70;;;;;;5096440;28;20475;-78
2023/09/03 04:58:00;;;;;;;9.45;4.80;;;23.40;73.60;;;;;;5097487;28;20070;-76
2023/09/03 05:00:28;;;;;;;9.05;4.53;;;23.40;73.60;;;;;;5097809;28;20051;-77
2023/09/03 05:02:54;;;;;;;10.75;4.55;;;23.40;73.80;;;;;;5115864;28;20078;-77
2023/09/03 05:05:19;;;;;;;10.60;5.10;;;23.40;73.60;;;;;;5115954;28;20440;-77
2023/09/03 05:07:47;;;;;;;10.32;4.70;;;23.40;73.80;;;;;;5115970;28;20099;-78
2023/09/03 05:10:18;;;;;;;10.30;4.43;;;23.40;73.80;;;;;;5115882;28;20032;-77
2023/09/03 05:12:47;;;;;;;10.57;4.43;;;23.40;73.90;;;;;;5115866;28;20039;-78
2023/09/03 05:15:14;;;;;;;8.27;4.43;;;23.40;74.00;;;;;;5115591;28;20479;-77
2023/09/03 05:17:40;;;;;;;18.08;5.53;;;23.40;74.00;;;;;;5115772;28;20043;-78
2023/09/03 05:20:09;;;;;;;9.73;4.88;;;23.40;73.80;;;;;;5115693;28;20534;-78
2023/09/03 05:22:41;;;;;;;12.23;5.10;;;23.40;73.90;;;;;;5097548;28;20632;-79
2023/09/03 05:25:08;;;;;;;10.32;4.78;;;23.40;74.40;;;;;;5096322;28;20067;-72
2023/09/03 05:27:54;;;;;;;11.30;5.03;;;23.40;74.40;;;;;;5115477;28;20031;-78
2023/09/03 05:30:22;;;;;;;11.18;4.30;;;23.40;74.60;;;;;;5115734;28;20592;-78
2023/09/03 05:33:00;;;;;;;11.35;4.90;;;23.40;74.20;;;;;;5096924;28;20043;-78
2023/09/03 05:35:26;;;;;;;9.07;4.90;;;23.50;74.60;;;;;;5115245;28;20034;-77
2023/09/03 05:37:55;;;;;;;9.52;4.70;;;23.50;74.00;;;;;;5096753;28;20047;-78
2023/09/03 05:40:22;;;;;;;11.52;4.35;;;23.50;74.20;;;;;;5115441;28;20031;-78
2023/09/03 05:43:00;;;;;;;9.43;4.40;;;23.50;73.90;;;;;;5115524;28;20066;-77
2023/09/03 05:45:27;;;;;;;9.82;4.57;;;23.50;73.80;;;;;;5115513;28;20028;-77
2023/09/03 05:47:59;;;;;;;13.00;4.20;;;23.60;73.70;;;;;;5114981;28;20046;-77
2023/09/03 05:50:25;;;;;;;9.15;4.30;;;23.80;73.60;;;;;;5096844;28;20115;-76
2023/09/03 05:53:00;;;;;;;13.32;4.47;;;24.00;73.20;;;;;;5115100;28;20448;-77
2023/09/03 05:55:26;;;;;;;8.82;4.50;;;24.20;72.90;;;;;;5115412;28;20058;-78
2023/09/03 05:58:00;;;;;;;9.20;4.60;;;24.40;72.00;;;;;;5096544;28;20131;-78
2023/09/03 06:00:26;;;;;;;9.68;4.22;;;24.70;71.60;;;;;;5096162;28;20413;-77
2023/09/03 06:02:55;;;;;;;7.55;4.30;;;24.90;71.00;;;;;;5117673;28;20040;-77
2023/09/03 06:05:25;;;;;;;9.45;4.13;;;25.10;70.50;;;;;;5102805;28;20047;-78
2023/09/03 06:07:51;;;;;;;12.88;5.80;;;25.30;70.00;;;;;;5116467;28;20504;-77
2023/09/03 06:10:17;;;;;;;10.65;6.28;;;25.40;69.20;;;;;;5115648;28;20035;-75
2023/09/03 06:13:02;;;;;;;12.13;6.03;;;25.60;69.00;;;;;;5097040;28;20376;-76
2023/09/03 06:15:30;;;;;;;11.10;5.10;;;25.90;68.10;;;;;;5094800;28;20051;-77
2023/09/03 06:18:14;;;;;;;8.60;4.22;;;26.10;67.70;;;;;;5096522;28;20048;-78
2023/09/03 06:20:40;;;;;;;12.85;4.50;;;26.20;67.30;;;;;;5096602;28;20657;-76
2023/09/03 06:23:09;;;;;;;10.32;4.38;;;26.30;67.20;;;;;;5114913;28;20104;-77
2023/09/03 06:25:36;;;;;;;11.75;3.92;;;26.50;66.90;;;;;;5114547;28;20035;-77
2023/09/03 06:28:05;;;;;;;8.60;3.95;;;26.60;66.40;;;;;;5114870;28;20118;-77
2023/09/03 06:30:31;;;;;;;9.98;3.78;;;26.80;65.90;;;;;;5096907;28;20046;-78
2023/09/03 06:33:11;;;;;;;9.05;4.07;;;27.00;65.60;;;;;;5095941;28;20039;-79
2023/09/03 06:35:40;;;;;;;9.43;4.70;;;27.10;65.20;;;;;;5114694;28;20483;-78
2023/09/03 06:38:29;;;;;;;8.35;4.53;;;27.30;65.00;;;;;;5114469;28;20108;-78
2023/09/03 06:40:55;;;;;;;11.55;4.50;;;27.50;64.70;;;;;;5096137;28;20047;-77
2023/09/03 06:43:21;;;;;;;7.65;3.65;;;27.70;64.20;;;;;;5114099;28;20467;-76
2023/09/03 06:45:47;;;;;;;10.68;4.18;;;27.90;63.80;;;;;;5114170;28;20035;-76
2023/09/03 06:48:13;;;;;;;9.32;3.90;;;28.00;63.30;;;;;;5114419;28;20039;-76
2023/09/03 06:50:45;;;;;;;8.93;4.00;;;28.10;62.90;;;;;;5114525;28;20149;-77
2023/09/03 06:53:16;;;;;;;9.35;4.05;;;28.10;62.90;;;;;;5095726;28;20110;-78
2023/09/03 06:55:46;;;;;;;7.50;3.30;;;28.10;62.70;;;;;;5114322;28;20032;-76
2023/09/03 06:58:20;;;;;;;8.23;3.80;;;28.20;62.50;;;;;;5113979;28;20138;-79
2023/09/03 07:00:46;;;;;;;11.70;3.60;;;28.40;62.00;;;;;;5114220;28;20049;-78
2023/09/03 07:03:13;;;;;;;9.88;4.55;;;28.40;61.50;;;;;;5113724;28;20039;-79
2023/09/03 07:05:39;;;;;;;11.55;5.68;;;28.60;61.40;;;;;;5113928;28;20126;-78
2023/09/03 07:08:13;;;;;;;9.45;4.28;;;28.70;61.80;;;;;;5113766;28;20024;-78
2023/09/03 07:10:39;;;;;;;7.20;3.63;;;28.80;60.90;;;;;;5095934;28;20118;-78
2023/09/03 07:13:08;;;;;;;9.60;3.58;;;28.80;60.80;;;;;;5113949;28;20040;-78
2023/09/03 07:15:51;;;;;;;7.82;3.80;;;28.90;60.60;;;;;;5113564;28;20028;-77
2023/09/03 07:18:19;;;;;;;8.57;3.53;;;29.00;60.40;;;;;;5113761;28;20054;-79
2023/09/03 07:20:45;;;;;;;9.75;3.90;;;28.90;60.30;;;;;;5113797;28;20024;-77
2023/09/03 07:23:20;;;;;;;9.88;4.45;;;28.90;60.20;;;;;;5095659;28;20131;-79
2023/09/03 07:25:49;;;;;;;7.63;4.07;;;29.00;60.20;;;;;;5095690;28;20406;-78
2023/09/03 07:28:24;;;;;;;11.07;4.50;;;29.00;60.00;;;;;;5095060;28;20475;-78
2023/09/03 07:30:51;;;;;;;9.18;4.05;;;29.10;60.00;;;;;;5113798;28;20027;-77
2023/09/03 07:33:19;;;;;;;9.13;4.47;;;29.30;59.50;;;;;;5113717;28;20035;-79
2023/09/03 07:35:45;;;;;;;16.67;11.52;;;29.30;59.10;;;;;;5113798;28;20063;-79
2023/09/03 07:38:15;;;;;;;8.30;4.75;;;29.30;58.80;;;;;;5113677;28;20074;-78
2023/09/03 07:40:41;;;;;;;9.18;4.68;;;29.40;59.00;;;;;;5095322;28;20385;-76
2023/09/03 07:43:22;;;;;;;9.07;4.00;;;29.40;58.90;;;;;;5113527;28;20047;-78
2023/09/03 07:45:53;;;;;;;9.98;4.30;;;29.50;59.00;;;;;;5113531;28;20031;-78
2023/09/03 07:48:26;;;;;;;8.10;3.95;;;29.40;58.90;;;;;;5113540;28;20035;-78
2023/09/03 07:50:55;;;;;;;9.10;4.20;;;29.30;58.80;;;;;;5095047;28;20077;-77
2023/09/03 07:53:28;;;;;;;7.22;3.88;;;29.30;58.90;;;;;;5113629;28;20032;-78
2023/09/03 07:55:54;;;;;;;8.45;3.85;;;29.20;59.00;;;;;;5095046;28;20558;-77
2023/09/03 07:58:43;;;;;;;12.77;3.90;;;29.10;59.10;;;;;;5113106;28;20086;-78
2023/09/03 08:01:14;;;;;;;9.25;3.78;;;29.10;59.30;;;;;;5113325;28;20028;-79
2023/09/03 08:03:43;;;;;;;10.60;3.72;;;29.00;59.30;;;;;;5113844;28;20122;-76
2023/09/03 08:06:10;;;;;;;9.55;3.80;;;29.00;59.20;;;;;;5121420;28;20506;-77
2023/09/03 08:08:38;;;;;;;9.40;3.95;;;28.90;59.40;;;;;;5102938;28;20107;-77
2023/09/03 08:11:07;;;;;;;8.75;4.07;;;28.80;59.30;;;;;;5115518;28;20022;-78
2023/09/03 08:13:33;;;;;;;11.23;4.10;;;28.70;59.40;;;;;;5113725;28;20372;-78
2023/09/03 08:15:59;;;;;;;7.88;3.97;;;28.70;59.90;;;;;;5113252;28;20024;-78
2023/09/03 08:18:31;;;;;;;10.35;4.20;;;28.60;59.70;;;;;;5112953;28;20071;-79
2023/09/03 08:20:58;;;;;;;9.40;4.38;;;28.50;59.60;;;;;;5098021;28;20032;-78
2023/09/03 08:23:41;;;;;;;6.85;3.80;;;28.40;60.00;;;;;;5117346;28;20433;-78
2023/09/03 08:26:11;;;;;;;10.60;4.13;;;28.30;60.00;;;;;;5116592;28;20106;-77
2023/09/03 08:28:40;;;;;;;8.40;3.55;;;28.30;60.30;;;;;;5116974;28;20031;-76
2023/09/03 08:31:06;;;;;;;9.38;3.72;;;28.20;60.60;;;;;;5116894;28;20398;-79
2023/09/03 08:33:33;;;;;;;8.95;3.70;;;28.20;60.60;;;;;;5098213;28;20035;-77
2023/09/03 08:36:01;;;;;;;11.15;4.28;;;28.20;60.70;;;;;;5116731;28;20028;-79
2023/09/03 08:38:27;;;;;;;9.63;3.75;;;28.10;60.90;;;;;;5116219;28;20118;-77
2023/09/03 08:40:53;;;;;;;7.78;3.40;;;28.10;60.80;;;;;;5098106;28;20036;-78
2023/09/03 08:43:20;;;;;;;9.80;3.97;;;28.10;60.80;;;;;;5116320;28;20039;-78
2023/09/03 08:45:51;;;;;;;9.27;3.58;;;28.10;60.70;;;;;;5098197;28;20471;-78
2023/09/03 08:48:17;;;;;;;12.35;3.97;;;28.10;60.40;;;;;;5117334;28;20032;-76
2023/09/03 08:50:44;;;;;;;11.52;3.85;;;28.10;60.50;;;;;;5098295;28;20039;-78
2023/09/03 08:53:11;;;;;;;9.95;3.72;;;28.00;60.40;;;;;;5116601;28;20042;-78
2023/09/03 08:55:41;;;;;;;11.52;6.35;;;28.10;60.50;;;;;;5116298;28;20035;-78
2023/09/03 08:58:08;;;;;;;8.25;4.03;;;28.10;60.60;;;;;;5098546;28;20056;-78
2023/09/03 09:00:36;;;;;;;7.95;3.80;;;28.10;60.40;;;;;;5097802;28;20110;-77
2023/09/03 09:03:10;;;;;;;10.32;3.70;;;28.20;60.40;;;;;;5116536;28;20535;-78
2023/09/03 09:05:37;;;;;;;8.93;3.83;;;28.20;60.20;;;;;;5116099;28;20513;-79
2023/09/03 09:08:09;;;;;;;13.65;5.20;;;28.20;60.20;;;;;;5116052;28;20031;-80
2023/09/03 09:10:40;;;;;;;9.65;3.88;;;28.20;60.30;;;;;;5116111;28;20034;-79
2023/09/03 09:13:11;;;;;;;7.40;3.65;;;28.30;60.20;;;;;;5116250;28;20054;-79
2023/09/03 09:15:42;;;;;;;10.27;3.85;;;28.30;60.20;;;;;;5115786;28;20046;-79
2023/09/03 09:18:09;;;;;;;5.95;3.30;;;28.30;59.90;;;;;;5115604;28;20036;-79
2023/09/03 09:20:39;;;;;;;7.13;3.70;;;28.30;59.70;;;;;;5096942;28;20043;-79
2023/09/03 09:23:07;;;;;;;9.60;3.38;;;28.40;59.50;;;;;;5115693;28;20042;-79
2023/09/03 09:25:34;;;;;;;6.68;3.35;;;28.40;59.10;;;;;;5115771;28;20077;-78
2023/09/03 09:28:13;;;;;;;8.30;3.22;;;28.40;59.10;;;;;;5116193;28;20063;-79
2023/09/03 09:30:53;;;;;;;7.43;3.35;;;28.40;59.10;;;;;;5115901;28;20031;-79
2023/09/03 09:33:21;;;;;;;7.47;3.47;;;28.50;59.10;;;;;;5097030;28;20138;-79
2023/09/03 09:35:47;;;;;;;7.65;3.42;;;28.50;58.80;;;;;;5116057;28;20031;-79
2023/09/03 09:38:13;;;;;;;6.60;3.60;;;28.60;58.70;;;;;;5096989;28;20130;-78
2023/09/03 09:40:38;;;;;;;7.85;3.60;;;28.60;58.30;;;;;;5115982;28;20106;-77
2023/09/03 09:43:07;;;;;;;7.45;3.58;;;28.60;58.20;;;;;;5097207;28;20486;-79
2023/09/03 09:45:44;;;;;;;8.10;3.35;;;28.70;58.10;;;;;;5115357;28;20106;-78
2023/09/03 09:48:13;;;;;;;11.52;3.72;;;28.70;58.00;;;;;;5115557;28;20477;-78
2023/09/03 09:50:41;;;;;;;7.53;3.45;;;28.80;57.90;;;;;;5115499;28;20024;-77
2023/09/03 09:53:26;;;;;;;6.82;3.22;;;28.80;57.90;;;;;;5097282;28;20368;-80
2023/09/03 09:56:00;;;;;;;11.75;3.95;;;28.90;57.70;;;;;;5097083;28;20032;-78
2023/09/03 09:58:37;;;;;;;8.15;4.50;;;29.00;57.60;;;;;;5096574;28;20395;-79
2023/09/03 10:01:03;;;;;;;9.27;3.92;;;29.00;57.50;;;;;;5096719;28;20036;-77
2023/09/03 10:03:48;;;;;;;8.63;3.60;;;29.10;57.60;;;;;;5115362;28;20389;-79
2023/09/03 10:06:18;;;;;;;9.88;3.55;;;29.20;57.60;;;;;;5115133;28;20107;-79
2023/09/03 10:08:45;;;;;;;7.00;3.33;;;29.30;57.50;;;;;;5096873;28;20039;-77
2023/09/03 10:11:11;;;;;;;8.23;3.80;;;29.30;57.50;;;;;;5115095;28;20023;-78
2023/09/03 10:13:41;;;;;;;8.75;3.78;;;29.30;57.40;;;;;;5114525;28;20494;-78
2023/09/03 10:16:10;;;;;;;9.52;4.15;;;29.30;57.20;;;;;;5114634;28;20043;-78
2023/09/03 10:18:40;;;;;;;7.63;3.38;;;29.40;57.10;;;;;;5114712;28;20456;-77
2023/09/03 10:21:09;;;;;;;8.02;3.38;;;29.50;56.70;;;;;;5096588;28;20562;-78
2023/09/03 10:23:48;;;;;;;9.88;4.05;;;29.60;56.60;;;;;;5114634;28;20452;-79
2023/09/03 10:26:27;;;;;;;6.45;3.55;;;29.60;56.10;;;;;;5114566;28;20032;-78
2023/09/03 10:28:59;;;;;;;6.78;3.30;;;29.70;55.50;;;;;;5114423;28;20038;-78
2023/09/03 10:31:26;;;;;;;10.02;3.60;;;29.80;55.20;;;;;;5114416;28;20028;-78
2023/09/03 10:33:52;;;;;;;8.73;3.55;;;29.80;54.80;;;;;;5096185;28;20036;-78
2023/09/03 10:36:20;;;;;;;7.90;3.47;;;29.90;54.80;;;;;;5114480;28;20032;-78
2023/09/03 10:38:47;;;;;;;8.57;4.80;;;29.90;55.20;;;;;;5114201;28;20043;-80
2023/09/03 10:41:17;;;;;;;6.50;3.78;;;29.90;54.40;;;;;;5114465;28;20092;-78
2023/09/03 10:43:45;;;;;;;10.15;3.53;;;30.00;53.50;;;;;;5113290;28;20059;-79
2023/09/03 10:46:11;;;;;;;8.50;3.65;;;30.10;52.80;;;;;;5114139;28;20024;-79
2023/09/03 10:48:37;;;;;;;10.18;3.20;;;30.20;53.20;;;;;;5095906;28;20043;-77
2023/09/03 10:51:04;;;;;;;5.43;2.80;;;30.30;52.70;;;;;;5113970;28;20112;-79
2023/09/03 10:53:34;;;;;;;10.32;3.60;;;30.40;52.20;;;;;;5095826;28;20040;-78
2023/09/03 10:56:17;;;;;;;8.77;3.00;;;30.50;51.90;;;;;;5114120;28;20019;-79
2023/09/03 10:58:53;;;;;;;;;;;30.50;51.80;;;;;;5096061;28;20040;-79
2023/09/03 11:01:34;;;;;;;7.40;2.97;;;30.50;51.00;;;;;;5114323;28;19910;-79
2023/09/03 11:04:01;;;;;;;5.38;2.70;;;30.60;50.80;;;;;;5113826;28;20398;-79
2023/09/03 11:06:30;;;;;;;5.47;3.17;;;30.70;51.20;;;;;;5113740;28;20487;-79
2023/09/03 11:09:05;;;;;;;13.65;4.35;;;30.70;51.30;;;;;;5113645;28;20032;-78
2023/09/03 11:11:35;;;;;;;9.85;3.25;;;30.80;51.00;;;;;;5113959;28;20057;-78
2023/09/03 11:14:02;;;;;;;7.35;3.58;;;30.80;51.40;;;;;;5114035;28;20069;-77
2023/09/03 11:16:35;;;;;;;7.38;3.15;;;30.90;50.70;;;;;;5114018;28;20024;-78
2023/09/03 11:19:04;;;;;;;6.88;3.30;;;30.90;49.60;;;;;;5095422;28;20432;-77
2023/09/03 11:21:30;;;;;;;8.10;3.72;;;31.00;50.50;;;;;;5113557;28;20529;-78
2023/09/03 11:24:17;;;;;;;8.50;3.50;;;31.10;50.40;;;;;;5095329;28;20478;-79
2023/09/03 11:26:46;;;;;;;9.45;3.40;;;31.20;50.70;;;;;;5113332;28;20032;-79
2023/09/03 11:29:23;;;;;;;7.60;3.47;;;31.20;50.80;;;;;;5113637;28;20048;-78
2023/09/03 11:31:50;;;;;;;5.22;2.95;;;31.30;51.20;;;;;;5094912;28;20043;-78
2023/09/03 11:34:29;;;;;;;7.20;3.22;;;31.40;50.50;;;;;;5113341;28;20031;-79
2023/09/03 11:36:57;;;;;;;7.43;3.30;;;31.50;50.00;;;;;;5094991;28;20564;-79
2023/09/03 11:39:23;;;;;;;8.63;3.45;;;31.60;50.10;;;;;;5113761;28;20028;-79
2023/09/03 11:41:49;;;;;;;9.55;3.35;;;31.60;50.00;;;;;;5095077;28;20040;-79
2023/09/03 11:44:23;;;;;;;6.53;3.10;;;31.60;49.80;;;;;;5113166;28;20031;-79
2023/09/03 11:46:58;;;;;;;6.75;3.38;;;31.70;50.00;;;;;;5113417;28;20443;-79
2023/09/03 11:49:24;;;;;;;5.82;3.17;;;31.80;50.20;;;;;;5113227;28;20118;-80
2023/09/03 11:51:52;;;;;;;6.80;3.28;;;31.80;50.00;;;;;;5113295;28;20373;-79
2023/09/03 11:54:25;;;;;;;7.20;3.40;;;31.90;50.30;;;;;;5112699;28;20065;-78
2023/09/03 11:56:57;;;;;;;;;;;31.90;50.30;;;;;;5095029;28;20032;-77
2023/09/03 11:59:26;;;;;;;6.10;3.60;;;32.00;49.10;;;;;;5111865;28;20332;-79
2023/09/03 12:01:53;;;;;;;6.65;3.53;;;32.00;50.40;;;;;;5112998;28;20024;-81
2023/09/03 12:04:20;;;;;;;5.38;2.95;;;32.10;50.00;;;;;;5112950;28;20035;-78
2023/09/03 12:06:46;;;;;;;7.60;3.35;;;32.10;49.60;;;;;;5113036;28;20520;-79
2023/09/03 12:09:13;;;;;;;8.20;3.17;;;32.20;49.60;;;;;;5117653;28;20031;-78
2023/09/03 12:11:39;;;;;;;10.52;4.03;;;32.20;49.70;;;;;;5097822;28;20036;-79
2023/09/03 12:14:11;;;;;;;7.05;3.45;;;32.20;50.50;;;;;;5113438;28;20032;-78
2023/09/03 12:16:47;;;;;;;9.20;3.65;;;32.20;50.60;;;;;;5113482;28;20031;-79
2023/09/03 12:19:13;;;;;;;8.02;3.58;;;32.20;51.30;;;;;;5094512;28;20043;-78
2023/09/03 12:21:39;;;;;;;8.95;3.40;;;32.30;51.60;;;;;;5113174;28;20034;-79
2023/09/03 12:24:07;;;;;;;8.35;3.30;;;32.30;51.50;;;;;;5113352;28;20384;-80
2023/09/03 12:26:39;;;;;;;6.22;3.40;;;32.30;51.50;;;;;;5112746;28;20024;-78
2023/09/03 12:29:21;;;;;;;7.60;3.73;;;32.40;52.20;;;;;;5094329;28;20061;-77
2023/09/03 12:31:47;;;;;;;10.32;3.63;;;32.40;51.30;;;;;;5112650;28;20043;-77
2023/09/03 12:34:15;;;;;;;10.45;3.58;;;32.40;51.00;;;;;;5112470;28;20395;-79
2023/09/03 12:36:57;;;;;;;7.15;3.38;;;32.40;51.20;;;;;;5112730;28;20031;-79
2023/09/03 12:39:30;;;;;;;6.60;3.67;;;32.50;51.30;;;;;;5112538;28;20044;-80
2023/09/03 12:41:57;;;;;;;7.55;3.50;;;32.60;50.80;;;;;;5094622;28;20039;-78
2023/09/03 12:44:24;;;;;;;6.70;3.08;;;32.60;50.90;;;;;;5113125;28;20080;-77
2023/09/03 12:46:52;;;;;;;7.65;3.55;;;32.60;50.90;;;;;;5094475;28;20438;-77
2023/09/03 12:49:18;;;;;;;6.72;3.83;;;32.70;51.00;;;;;;5112753;28;20039;-77
2023/09/03 12:51:44;;;;;;;6.93;3.35;;;32.70;50.70;;;;;;5112826;28;20035;-79
2023/09/03 12:54:12;;;;;;;6.78;3.55;;;32.70;50.60;;;;;;5094181;28;20380;-79
2023/09/03 12:56:38;;;;;;;8.77;3.70;;;32.80;50.70;;;;;;5094383;28;20376;-79